Airfield :
LOGIN :

Register | Disclaimer

   EN    FR    IT 

 










Legend :    VFR   Marginal VFR   IFR   Intensive IFR   Very Intensive IFR
Visi :
Ceiling :
>= 8 km
>= 3000ft
5 to 8 km
1000 to 3000 ft
1500m to 5 km
500 to 1000 ft
800 to 1500m
200 to 500 ft
< 800m
< 200 ft
Symbols :   Thunderstorms  Fog  Heavy snow  Heavy precipitations  Wind > 20 kt
SIGMETs :     Misc.  Thunderstorms  Icing  Turbulence  Mountain Waves  Volcanic Ashes







- Airport Elevation : 1234 ft
- IATA code : LUX


ELLX - Luxembourg Findel

CURRENT METAR :
  • 211720Z 27015KT CAVOK 14/03 Q1016 TEMPO 27018G28KT

EXPIRED METARs :
  • 211650Z 27017KT CAVOK 14/03 Q1016 TEMPO 27018G28KT
  • 211620Z 28017G31KT 260V320 CAVOK 15/03 Q1015 NOSIG
  • 211550Z 27019KT 9999 FEW040 16/04 Q1015 TEMPO 27018G30KT
  • 211520Z 27016KT 9999 FEW040 17/04 Q1014 TEMPO 27018G30KT
  • 211450Z 27020KT 9999 SCT038 SCT047 16/05 Q1014 TEMPO 27018G30KT

TAF TAF ELLX
Valid from the 21 at 18:00 until the 23 at 00:00 UTC


211700Z 2118/2224 26010G20KT 9999 FEW040
TEMPO 2118/2120 26015G25KT
BECMG 2122/2202 23007KT
BECMG 2218/2222 15005KT -RA SCT005 BKN030
ATIS : +352 4798 27300
Met : +352 4798 27010 / 27050
No reported NOTAMs for that airfield.
1 SIGMET reported for the Brussels FIR (EBBU) :
 
Severe turbulence
EBBU SIGMET 02 VALID 211600/211900 EBBR
EBBU BRUSSELS FIR SEV TURB FCST ENTIRE FIR FL160/260 MOV ENE20KT NC=



MET'MAP, your aeronautical weather chart ! - Copyright ORBIFLY December 2007 - Disclaimer

ORBIFLY MET'MAP TEAM :

Programming & Development : Alexandra Zaïnal
Concept & Development : Baudouin d'Aumeries
Co-Development & Prog : Marc-Olivier Méhu
Technical & hardware support : Manuel Goepfert

Contact : metmap@orbifly.com




SOURCES & CREDITS :

   NOAA